Time;durP1;ratioP1;P1;durP2;ratioP2;P2;SDS_P1;SDS_P2;PMS_P1;PMS_P2;Temp;Humidity;BMP_temperature;BMP_pressure;BME280_temperature;BME280_humidity;BME280_pressure;Samples;Min_cycle;Max_cycle;Signal;HPM_P1;HPM_P2
2023/12/03 00:02:12;;;;;;;21.20;8.80;;;;;;;-0.43;100.00;99347.83;107342;1279;61705;-63
2023/12/03 00:05:01;;;;;;;19.80;7.50;;;;;;;-0.43;100.00;99347.50;107216;1280;74105;-62
2023/12/03 00:07:49;;;;;;;19.60;8.50;;;;;;;-0.44;100.00;99350.98;107445;1280;67733;-62
2023/12/03 00:10:37;;;;;;;16.10;6.80;;;;;;;-0.42;100.00;99350.41;107387;1280;74015;-63
2023/12/03 00:13:25;;;;;;;19.30;7.50;;;;;;;-0.44;100.00;99347.70;107465;1280;58093;-63
2023/12/03 00:16:12;;;;;;;19.30;8.10;;;;;;;-0.46;100.00;99347.45;107248;1280;60299;-62
2023/12/03 00:19:00;;;;;;;18.70;7.30;;;;;;;-0.46;100.00;99346.06;107336;1280;72567;-64
2023/12/03 00:21:48;;;;;;;17.00;7.40;;;;;;;-0.49;100.00;99342.68;107367;1279;67928;-63
2023/12/03 00:24:36;;;;;;;20.40;8.20;;;;;;;-0.52;100.00;99340.39;107418;1279;71123;-63
2023/12/03 00:27:24;;;;;;;17.50;7.00;;;;;;;-0.52;100.00;99344.23;107349;1279;58202;-62
2023/12/03 00:30:13;;;;;;;16.50;7.10;;;;;;;-0.52;100.00;99347.36;107357;1280;58612;-63
2023/12/03 00:33:01;;;;;;;17.10;7.60;;;;;;;-0.50;100.00;99347.45;107441;1280;73922;-61
2023/12/03 00:35:49;;;;;;;15.70;6.60;;;;;;;-0.49;100.00;99346.69;107426;1279;67853;-62
2023/12/03 00:38:36;;;;;;;16.10;7.50;;;;;;;-0.47;100.00;99346.62;107378;1280;72575;-61
2023/12/03 00:41:24;;;;;;;18.10;6.70;;;;;;;-0.46;100.00;99347.95;107300;1279;58096;-65
2023/12/03 00:44:13;;;;;;;15.40;7.40;;;;;;;-0.46;100.00;99351.60;107326;1279;60279;-62
2023/12/03 00:47:00;;;;;;;15.70;6.10;;;;;;;-0.47;100.00;99349.77;107213;1280;73449;-61
2023/12/03 00:49:48;;;;;;;13.40;5.80;;;;;;;-0.47;100.00;99350.46;107457;1279;66705;-63
2023/12/03 00:52:36;;;;;;;16.60;6.40;;;;;;;-0.49;100.00;99350.01;107408;1279;73827;-64
2023/12/03 00:55:24;;;;;;;17.20;7.00;;;;;;;-0.48;100.00;99350.84;107448;1279;58138;-62
2023/12/03 00:58:12;;;;;;;17.70;6.70;;;;;;;-0.47;100.00;99352.88;107412;1280;59960;-62
2023/12/03 01:00:59;;;;;;;17.80;7.10;;;;;;;-0.46;100.00;99351.11;107325;1280;72630;-62
2023/12/03 01:03:47;;;;;;;15.20;6.30;;;;;;;-0.45;100.00;99357.70;107297;1279;68151;-63
2023/12/03 01:06:35;;;;;;;17.70;7.20;;;;;;;-0.44;100.00;99361.46;107425;1279;72739;-63
2023/12/03 01:09:23;;;;;;;17.60;6.40;;;;;;;-0.42;100.00;99364.35;107357;1279;58211;-62
2023/12/03 01:12:12;;;;;;;15.20;6.70;;;;;;;-0.40;100.00;99365.65;107443;1279;58282;-62
2023/12/03 01:15:00;;;;;;;13.60;5.60;;;;;;;-0.38;100.00;99365.59;107443;1280;73549;-63
2023/12/03 01:17:47;;;;;;;12.20;5.40;;;;;;;-0.39;100.00;99368.59;107447;1280;68039;-61
2023/12/03 01:20:35;;;;;;;14.90;6.50;;;;;;;-0.38;100.00;99370.46;107374;1280;72777;-62
2023/12/03 01:23:23;;;;;;;16.80;6.40;;;;;;;-0.39;100.00;99376.42;107382;1280;59014;-61
2023/12/03 01:26:10;;;;;;;15.40;5.80;;;;;;;-0.40;100.00;99382.05;107200;1280;61109;-62
2023/12/03 01:28:58;;;;;;;14.30;6.40;;;;;;;-0.41;100.00;99379.83;107297;1280;72652;-62
2023/12/03 01:31:45;;;;;;;15.30;5.70;;;;;;;-0.41;100.00;99379.98;107346;1280;65479;-62
2023/12/03 01:34:33;;;;;;;14.60;5.70;;;;;;;-0.39;100.00;99380.08;107434;1280;73680;-62
2023/12/03 01:37:21;;;;;;;13.90;5.60;;;;;;;-0.36;100.00;99381.00;107320;1279;58113;-62
2023/12/03 01:40:11;;;;;;;11.70;5.20;;;;;;;-0.36;100.00;99383.07;107237;1279;60690;-63
2023/12/03 01:42:59;;;;;;;11.40;4.60;;;;;;;-0.37;100.00;99387.85;107245;1279;74044;-63
2023/12/03 01:45:46;;;;;;;12.10;5.00;;;;;;;-0.42;100.00;99384.71;107424;1279;69037;-62
2023/12/03 01:48:34;;;;;;;11.00;4.30;;;;;;;-0.44;100.00;99386.39;107418;1280;71612;-62
2023/12/03 01:51:23;;;;;;;13.70;5.20;;;;;;;-0.48;100.00;99382.74;107205;1280;59016;-63
2023/12/03 01:54:11;;;;;;;11.10;4.70;;;;;;;-0.52;100.00;99386.05;107329;1280;59578;-63
2023/12/03 01:56:59;;;;;;;12.00;4.70;;;;;;;-0.55;100.00;99387.21;107246;1280;73582;-61
2023/12/03 01:59:47;;;;;;;10.90;4.60;;;;;;;-0.57;100.00;99390.44;107415;1279;68844;-64
2023/12/03 02:02:35;;;;;;;11.50;4.50;;;;;;;-0.59;100.00;99391.54;107429;1279;72736;-63
2023/12/03 02:05:23;;;;;;;10.20;3.90;;;;;;;-0.58;100.00;99395.17;107419;1279;58166;-64
2023/12/03 02:08:11;;;;;;;9.90;3.90;;;;;;;-0.58;100.00;99399.72;107458;1279;60114;-64
2023/12/03 02:11:00;;;;;;;11.60;3.60;;;;;;;-0.59;100.00;99399.40;107332;1280;73425;-63
2023/12/03 02:13:49;;;;;;;11.00;4.20;;;;;;;-0.58;100.00;99398.65;107236;1280;66663;-62
2023/12/03 02:16:37;;;;;;;9.60;3.50;;;;;;;-0.58;100.00;99400.39;107435;1279;71185;-61
2023/12/03 02:19:24;;;;;;;52.00;14.50;;;;;;;-0.59;100.00;99401.30;107309;1280;58488;-62
2023/12/03 02:22:12;;;;;;;75.20;21.60;;;;;;;-0.58;100.00;99401.97;107455;1280;59121;-63
2023/12/03 02:25:00;;;;;;;52.30;19.70;;;;;;;-0.58;100.00;99404.24;107325;1280;74923;-63
2023/12/03 02:27:48;;;;;;;43.50;16.20;;;;;;;-0.58;100.00;99407.02;107423;1280;68224;-62
2023/12/03 02:30:36;;;;;;;85.80;33.20;;;;;;;-0.58;100.00;99407.91;107452;1279;73811;-62
2023/12/03 02:33:24;;;;;;;138.60;42.00;;;;;;;-0.56;100.00;99413.90;107427;1279;59664;-63
2023/12/03 02:36:12;;;;;;;111.20;37.20;;;;;;;-0.55;100.00;99417.17;107354;1280;60050;-63
2023/12/03 02:38:59;;;;;;;82.20;28.70;;;;;;;-0.54;100.00;99418.00;107348;1280;73693;-63
2023/12/03 02:41:47;;;;;;;81.50;31.20;;;;;;;-0.50;100.00;99421.69;107275;1279;66691;-63
2023/12/03 02:44:35;;;;;;;62.30;25.70;;;;;;;-0.48;100.00;99425.60;107461;1279;70596;-65
2023/12/03 02:47:23;;;;;;;32.70;14.20;;;;;;;-0.46;100.00;99429.55;107453;1280;59420;-63
2023/12/03 02:50:11;;;;;;;27.70;12.80;;;;;;;-0.47;100.00;99429.92;107339;1279;61456;-63
2023/12/03 02:52:58;;;;;;;21.00;10.20;;;;;;;-0.47;100.00;99432.56;107462;1280;74950;-64
2023/12/03 02:55:46;;;;;;;15.20;7.30;;;;;;;-0.47;100.00;99432.91;107405;1280;66681;-64
2023/12/03 02:58:35;;;;;;;11.30;4.80;;;;;;;-0.47;100.00;99434.63;107322;1279;73198;-65
2023/12/03 03:01:23;;;;;;;9.10;4.20;;;;;;;-0.47;100.00;99436.70;107292;1279;58123;-62
2023/12/03 03:04:10;;;;;;;8.40;3.00;;;;;;;-0.45;100.00;99430.55;107423;1279;61140;-61
2023/12/03 03:06:58;;;;;;;7.40;2.90;;;;;;;-0.44;100.00;99431.20;107301;1280;73266;-61
2023/12/03 03:09:46;;;;;;;7.70;2.70;;;;;;;-0.42;100.00;99431.79;107199;1279;69531;-63
2023/12/03 03:12:34;;;;;;;8.50;3.20;;;;;;;-0.40;100.00;99432.39;107336;1280;72363;-63
2023/12/03 03:15:22;;;;;;;7.60;2.80;;;;;;;-0.36;100.00;99431.73;107442;1280;58676;-62
2023/12/03 03:18:10;;;;;;;6.60;2.20;;;;;;;-0.33;100.00;99434.05;107312;1280;60936;-63
2023/12/03 03:21:02;;;;;;;6.30;2.00;;;;;;;-0.34;100.00;99436.02;107514;1277;73960;-62
2023/12/03 03:23:50;;;;;;;7.10;2.60;;;;;;;-0.38;100.00;99437.23;106771;1277;1003025;-63
2023/12/03 03:26:39;;;;;;;16.10;7.00;;;;;;;-0.43;100.00;99432.90;107581;1278;72577;-63
2023/12/03 03:29:27;;;;;;;33.20;12.70;;;;;;;-0.47;100.00;99438.13;107355;1277;58213;-64
2023/12/03 03:32:14;;;;;;;21.00;9.00;;;;;;;-0.51;100.00;99437.95;107624;1278;59540;-62
2023/12/03 03:35:03;;;;;;;11.50;5.30;;;;;;;-0.54;100.00;99442.58;107457;1278;72627;-62
2023/12/03 03:37:51;;;;;;;8.60;3.60;;;;;;;-0.53;100.00;99448.30;106628;1277;1002438;-65
2023/12/03 03:40:39;;;;;;;7.50;2.80;;;;;;;-0.52;100.00;99444.59;107602;1278;72424;-62
2023/12/03 03:43:26;;;;;;;6.70;2.40;;;;;;;-0.49;100.00;99447.27;107573;1278;58579;-61
2023/12/03 03:46:14;;;;;;;7.00;2.20;;;;;;;-0.44;100.00;99451.61;107595;1277;61958;-63
2023/12/03 03:49:02;;;;;;;6.10;2.10;;;;;;;-0.44;100.00;99444.61;107383;1279;73785;-63
2023/12/03 03:51:50;;;;;;;5.60;2.00;;;;;;;-0.39;100.00;99451.88;106845;1278;1002377;-63
2023/12/03 03:54:41;;;;;;;5.90;2.40;;;;;;;-0.37;100.00;99452.52;107586;1278;70445;-62
2023/12/03 03:57:29;;;;;;;6.20;1.90;;;;;;;-0.40;100.00;99456.45;107320;1278;58192;-63
2023/12/03 04:00:18;;;;;;;5.50;1.90;;;;;;;-0.43;100.00;99457.64;107471;1277;61039;-64
2023/12/03 04:03:06;;;;;;;5.90;2.00;;;;;;;-0.45;100.00;99457.20;107430;1279;74066;-62
2023/12/03 04:05:54;;;;;;;8.00;2.30;;;;;;;-0.46;100.00;99461.78;107592;1278;67894;-62
2023/12/03 04:08:42;;;;;;;6.70;2.40;;;;;;;-0.47;100.00;99463.20;107515;1278;71135;-62
2023/12/03 04:11:31;;;;;;;6.50;1.90;;;;;;;-0.48;100.00;99465.20;107587;1278;58163;-65
2023/12/03 04:14:19;;;;;;;6.70;2.30;;;;;;;-0.53;100.00;99465.20;107413;1277;59614;-64
2023/12/03 04:17:08;;;;;;;7.60;2.30;;;;;;;-0.59;100.00;99470.50;107347;1278;74755;-64
2023/12/03 04:19:56;;;;;;;5.90;2.00;;;;;;;-0.67;100.00;99468.73;107594;1279;67912;-64
2023/12/03 04:22:44;;;;;;;5.90;1.90;;;;;;;-0.72;100.00;99469.64;107322;1278;71125;-65
2023/12/03 04:25:32;;;;;;;5.80;1.80;;;;;;;-0.79;100.00;99474.96;107523;1278;58111;-64
2023/12/03 04:28:19;;;;;;;6.10;1.80;;;;;;;-0.83;100.00;99476.19;107651;1278;60169;-67
2023/12/03 04:31:19;;;;;;;5.80;1.90;;;;;;;-0.87;100.00;99477.21;107449;1278;72546;-64
2023/12/03 04:34:07;;;;;;;7.00;2.50;;;;;;;-0.91;100.00;99477.73;107393;1277;68001;-63
2023/12/03 04:36:56;;;;;;;6.50;2.20;;;;;;;-0.92;100.00;99474.27;107606;1278;72219;-62
2023/12/03 04:39:44;;;;;;;6.80;2.50;;;;;;;-0.92;100.00;99473.06;107570;1278;58198;-63
2023/12/03 04:42:32;;;;;;;;;;;;;;;-0.94;100.00;99468.77;107580;1278;60992;-62
2023/12/03 04:45:19;;;;;;;7.20;2.90;;;;;;;-0.91;100.00;99476.67;107641;1279;73674;-63
2023/12/03 04:48:07;;;;;;;6.90;2.80;;;;;;;-0.90;100.00;99478.38;107482;1278;67079;-63
2023/12/03 04:50:55;;;;;;;6.40;2.30;;;;;;;-0.91;100.00;99481.39;107457;1277;71651;-61
2023/12/03 04:53:43;;;;;;;6.30;2.10;;;;;;;-0.93;100.00;99483.88;107347;1279;58220;-64
2023/12/03 04:56:31;;;;;;;6.50;2.20;;;;;;;-0.95;100.00;99485.73;107548;1278;61107;-63
2023/12/03 04:59:18;;;;;;;8.10;2.70;;;;;;;-0.98;100.00;99490.89;107613;1278;74545;-62
2023/12/03 05:02:06;;;;;;;8.00;3.20;;;;;;;-1.01;100.00;99496.92;107457;1278;68121;-65
2023/12/03 05:04:54;;;;;;;8.10;2.70;;;;;;;-1.02;100.00;99500.08;107567;1278;72982;-62
2023/12/03 05:07:42;;;;;;;7.30;2.40;;;;;;;-1.02;100.00;99501.48;107557;1278;59789;-66
2023/12/03 05:10:30;;;;;;;7.00;2.40;;;;;;;-1.02;100.00;99503.39;107315;1278;60064;-63
2023/12/03 05:13:17;;;;;;;7.10;2.30;;;;;;;-1.05;100.00;99505.77;107422;1278;73930;-67
2023/12/03 05:16:06;;;;;;;6.60;2.10;;;;;;;-1.09;100.00;99508.17;107463;1278;69092;-64
2023/12/03 05:18:54;;;;;;;6.50;2.20;;;;;;;-1.13;100.00;99505.41;107409;1278;72528;-65
2023/12/03 05:21:41;;;;;;;7.50;2.70;;;;;;;-1.16;100.00;99511.79;107340;1278;58656;-62
2023/12/03 05:24:29;;;;;;;6.60;2.30;;;;;;;-1.20;100.00;99508.27;107584;1277;58743;-64
2023/12/03 05:27:17;;;;;;;6.30;2.10;;;;;;;-1.22;100.00;99513.77;107579;1279;74530;-69
2023/12/03 05:30:06;;;;;;;5.60;1.90;;;;;;;-1.28;100.00;99514.68;107586;1279;66700;-64
2023/12/03 05:32:54;;;;;;;7.00;2.50;;;;;;;-1.36;100.00;99507.30;107361;1279;71807;-63
2023/12/03 05:35:42;;;;;;;6.90;2.20;;;;;;;-1.38;100.00;99518.32;107516;1279;58230;-67
2023/12/03 05:38:30;;;;;;;6.50;2.20;;;;;;;-1.42;100.00;99520.95;107572;1278;58745;-63
2023/12/03 05:41:18;;;;;;;7.60;2.00;;;;;;;-1.46;100.00;99521.59;107523;1277;74883;-63
2023/12/03 05:44:07;;;;;;;6.60;2.70;;;;;;;-1.50;100.00;99528.20;107519;1278;67701;-68
2023/12/03 05:46:54;;;;;;;7.70;2.70;;;;;;;-1.55;100.00;99535.30;107509;1279;72693;-64
2023/12/03 05:49:42;;;;;;;7.50;2.40;;;;;;;-1.61;100.00;99532.05;107508;1278;58204;-64
2023/12/03 05:52:31;;;;;;;6.50;2.30;;;;;;;-1.67;100.00;99531.94;107528;1279;59032;-66
2023/12/03 05:55:19;;;;;;;6.00;2.20;;;;;;;-1.74;100.00;99537.19;107608;1278;74306;-65
2023/12/03 05:58:07;;;;;;;7.80;2.70;;;;;;;-1.81;100.00;99534.85;107548;1276;66407;-65
2023/12/03 06:00:55;;;;;;;8.20;3.10;;;;;;;-1.87;100.00;99535.92;107515;1276;72399;-67
2023/12/03 06:03:43;;;;;;;7.90;3.00;;;;;;;-1.94;100.00;99531.29;107484;1276;59146;-67
2023/12/03 06:06:32;;;;;;;10.60;3.00;;;;;;;-1.98;100.00;99532.13;107634;1276;60391;-64
2023/12/03 06:09:19;;;;;;;9.30;3.40;;;;;;;-2.02;100.00;99537.83;107453;1276;74442;-64
2023/12/03 06:12:07;;;;;;;9.20;3.40;;;;;;;-2.05;100.00;99538.13;107503;1278;66757;-65
2023/12/03 06:14:55;;;;;;;7.10;2.70;;;;;;;-2.10;100.00;99544.38;107483;1278;73499;-62
2023/12/03 06:17:44;;;;;;;7.20;2.70;;;;;;;-2.16;100.00;99551.52;107463;1279;58131;-62
2023/12/03 06:20:33;;;;;;;7.20;2.60;;;;;;;-2.23;100.00;99554.35;107570;1276;61183;-66
2023/12/03 06:23:21;;;;;;;6.90;2.60;;;;;;;-2.29;100.00;99556.14;107741;1276;72347;-62
2023/12/03 06:26:09;;;;;;;10.40;3.30;;;;;;;-2.39;100.00;99550.03;107726;1276;67772;-63
2023/12/03 06:28:57;;;;;;;9.10;3.20;;;;;;;-2.40;100.00;99557.33;107778;1276;72613;-63
2023/12/03 06:31:44;;;;;;;7.20;2.60;;;;;;;-2.42;100.00;99561.92;107811;1276;58867;-65
2023/12/03 06:34:32;;;;;;;8.00;3.00;;;;;;;-2.45;100.00;99565.86;107456;1276;59967;-64
2023/12/03 06:37:20;;;;;;;7.80;3.00;;;;;;;-2.45;100.00;99570.02;106971;1276;1002235;-65
2023/12/03 06:40:10;;;;;;;7.70;2.80;;;;;;;-2.46;100.00;99572.30;107314;1277;68447;-65
2023/12/03 06:42:58;;;;;;;9.40;2.90;;;;;;;-2.47;100.00;99574.27;107432;1278;71543;-68
2023/12/03 06:45:46;;;;;;;13.40;5.10;;;;;;;-2.50;100.00;99583.20;107491;1278;58506;-66
2023/12/03 06:48:34;;;;;;;9.60;3.40;;;;;;;-2.51;100.00;99586.55;107435;1279;58744;-66
2023/12/03 06:51:22;;;;;;;10.10;3.20;;;;;;;-2.51;100.00;99585.86;107496;1279;74694;-65
2023/12/03 06:54:10;;;;;;;7.70;2.90;;;;;;;-2.49;100.00;99585.45;107472;1281;69313;-66
2023/12/03 06:56:58;;;;;;;7.80;3.10;;;;;;;-2.48;100.00;99583.16;107499;1278;71954;-65
2023/12/03 06:59:46;;;;;;;8.10;3.00;;;;;;;-2.46;100.00;99585.70;107434;1279;58224;-65
2023/12/03 07:02:36;;;;;;;8.70;2.00;;;;;;;-2.46;100.00;99591.95;107515;1277;59036;-64
2023/12/03 07:05:24;;;;;;;6.90;2.50;;;;;;;-2.46;100.00;99596.48;107525;1279;73809;-65
2023/12/03 07:08:13;;;;;;;8.90;3.80;;;;;;;-2.47;100.00;99596.86;106474;1278;1002633;-62
2023/12/03 07:11:01;;;;;;;7.60;3.60;;;;;;;-2.47;100.00;99601.03;107248;1279;72444;-65
2023/12/03 07:13:49;;;;;;;8.50;3.50;;;;;;;-2.47;100.00;99606.22;107549;1277;58444;-63
2023/12/03 07:16:37;;;;;;;11.70;4.60;;;;;;;-2.46;100.00;99606.37;107538;1277;59090;-64
2023/12/03 07:19:25;;;;;;;10.10;3.90;;;;;;;-2.44;100.00;99609.95;107515;1276;74693;-61
2023/12/03 07:22:13;;;;;;;10.30;3.90;;;;;;;-2.41;100.00;99613.15;107324;1276;66457;-65
2023/12/03 07:25:02;;;;;;;13.70;5.20;;;;;;;-2.41;100.00;99613.84;107344;1277;73652;-63
2023/12/03 07:27:51;;;;;;;11.30;4.30;;;;;;;-2.40;100.00;99617.63;107700;1276;58627;-62
2023/12/03 07:30:39;;;;;;;8.70;3.40;;;;;;;-2.39;100.00;99616.39;106630;1276;1002187;-65
2023/12/03 07:33:27;;;;;;;9.40;3.30;;;;;;;-2.40;100.00;99615.39;107501;1282;74590;-62
2023/12/03 07:36:15;;;;;;;10.50;4.20;;;;;;;-2.41;100.00;99617.85;107780;1276;67604;-62
2023/12/03 07:39:03;;;;;;;10.30;3.80;;;;;;;-2.39;100.00;99616.05;107549;1279;70115;-62
2023/12/03 07:41:53;;;;;;;12.40;4.00;;;;;;;-2.37;100.00;99621.21;107511;1278;58719;-64
2023/12/03 07:44:41;;;;;;;11.20;4.50;;;;;;;-2.34;100.00;99620.94;107351;1279;60487;-62
2023/12/03 07:47:29;;;;;;;11.50;4.60;;;;;;;-2.31;100.00;99620.14;107678;1276;73719;-63
2023/12/03 07:50:18;;;;;;;10.60;4.80;;;;;;;-2.26;100.00;99618.08;107734;1276;67587;-63
2023/12/03 07:53:05;;;;;;;9.70;3.70;;;;;;;-2.24;99.68;99619.57;107563;1276;72735;-63
2023/12/03 07:55:53;;;;;;;10.60;3.80;;;;;;;-2.23;99.17;99617.46;107711;1276;58175;-63
2023/12/03 07:58:41;;;;;;;8.00;3.30;;;;;;;-2.21;99.01;99618.44;107606;1276;58754;-63
2023/12/03 08:01:29;;;;;;;8.10;3.00;;;;;;;-2.17;98.89;99619.88;107543;1276;72405;-61
2023/12/03 08:04:18;;;;;;;10.60;3.80;;;;;;;-2.13;98.62;99622.19;107576;1277;65805;-65
2023/12/03 08:07:07;;;;;;;10.30;3.30;;;;;;;-2.09;98.42;99619.08;107313;1279;73434;-61
2023/12/03 08:09:55;;;;;;;8.30;3.00;;;;;;;-2.00;98.11;99617.76;107663;1276;58370;-63
2023/12/03 08:12:43;;;;;;;9.20;3.60;;;;;;;-1.91;97.47;99616.75;107549;1281;59996;-62
2023/12/03 08:15:31;;;;;;;9.10;3.10;;;;;;;-1.62;97.17;99613.68;107504;1278;74850;-65
2023/12/03 08:18:19;;;;;;;10.60;3.70;;;;;;;-0.84;96.92;99611.23;107479;1277;68722;-62
2023/12/03 08:21:09;;;;;;;9.30;3.50;;;;;;;0.37;93.20;99607.73;107656;1277;74176;-62
2023/12/03 08:23:58;;;;;;;10.40;4.30;;;;;;;2.27;87.43;99601.87;107407;1280;58363;-64
2023/12/03 08:26:46;;;;;;;10.00;4.60;;;;;;;4.04;78.78;99597.08;107733;1277;61049;-61
2023/12/03 08:29:34;;;;;;;11.80;4.70;;;;;;;5.39;73.88;99593.46;107387;1277;72559;-63
2023/12/03 08:32:22;;;;;;;10.90;4.60;;;;;;;6.73;67.57;99583.92;107498;1277;68065;-66
2023/12/03 08:35:10;;;;;;;11.70;4.60;;;;;;;7.94;60.80;99582.02;107676;1276;74048;-64
2023/12/03 08:37:58;;;;;;;10.80;5.00;;;;;;;8.77;55.92;99581.42;107551;1276;58713;-63
2023/12/03 08:40:46;;;;;;;10.20;4.50;;;;;;;9.52;54.33;99582.25;107659;1276;59150;-63
2023/12/03 08:43:34;;;;;;;9.90;4.50;;;;;;;10.20;49.92;99583.08;107797;1276;73974;-64
2023/12/03 08:46:25;;;;;;;9.80;4.50;;;;;;;10.51;46.31;99579.80;107843;1276;68709;-63
2023/12/03 08:49:14;;;;;;;11.00;4.60;;;;;;;10.87;45.89;99579.71;107598;1275;72727;-64
2023/12/03 08:52:03;;;;;;;11.30;4.30;;;;;;;11.32;43.95;99579.52;107493;1276;58835;-64
2023/12/03 08:54:55;;;;;;;14.30;5.20;;;;;;;11.76;43.28;99578.98;107827;1276;60062;-62
2023/12/03 08:57:47;;;;;;;17.00;6.90;;;;;;;12.31;42.67;99575.45;107586;1276;73895;-63
2023/12/03 09:00:39;;;;;;;16.30;6.70;;;;;;;12.79;41.78;99580.11;107585;1276;66715;-62
2023/12/03 09:03:32;;;;;;;16.40;6.00;;;;;;;12.46;40.29;99576.59;107609;1276;73654;-65
2023/12/03 09:06:26;;;;;;;15.80;6.40;;;;;;;12.90;40.58;99581.52;107550;1276;58420;-64
2023/12/03 09:09:23;;;;;;;15.70;6.60;;;;;;;13.34;39.09;99582.01;107675;1276;59042;-63
2023/12/03 09:12:19;;;;;;;17.00;7.10;;;;;;;13.71;38.33;99584.26;107647;1277;72534;-63
2023/12/03 09:15:14;;;;;;;20.70;8.30;;;;;;;13.95;36.70;99583.33;107459;1277;67117;-64
2023/12/03 09:18:07;;;;;;;14.70;6.50;;;;;;;14.31;36.82;99579.89;106976;1283;72723;-64
2023/12/03 09:21:08;;;;;;;12.50;6.10;;;;;;;14.85;35.67;99572.14;107019;1282;58295;-64
2023/12/03 09:24:01;;;;;;;11.10;5.20;;;;;;;15.21;34.63;99574.15;106760;1282;59156;-63
2023/12/03 09:26:56;;;;;;;11.20;5.30;;;;;;;15.55;33.30;99571.79;106522;1286;72567;-65
2023/12/03 09:29:47;;;;;;;11.20;5.10;;;;;;;15.15;33.37;99575.13;106284;1290;68039;-62
2023/12/03 09:32:44;;;;;;;12.10;5.90;;;;;;;14.69;33.69;99574.11;106017;1289;71251;-63
2023/12/03 09:35:41;;;;;;;12.70;5.20;;;;;;;14.99;33.03;99571.73;106135;1292;59109;-61
2023/12/03 09:38:34;;;;;;;11.60;6.10;;;;;;;14.24;33.56;99573.16;106195;1290;59475;-66
2023/12/03 09:41:34;;;;;;;13.00;5.90;;;;;;;14.20;34.58;99571.38;106285;1290;73966;-63
2023/12/03 09:45:01;;;;;;;14.10;6.40;;;;;;;13.35;34.65;99573.42;106156;1290;67713;-65
2023/12/03 09:48:04;;;;;;;14.50;7.10;;;;;;;10.98;37.68;99576.98;106087;1290;72673;-61
2023/12/03 09:51:03;;;;;;;13.90;6.30;;;;;;;9.39;40.49;99592.13;106386;1289;58893;-62
2023/12/03 09:54:02;;;;;;;10.60;6.20;;;;;;;8.05;43.09;99592.65;106378;1288;60253;-63
2023/12/03 09:57:01;;;;;;;12.50;5.30;;;;;;;6.90;45.21;99595.98;106530;1287;73652;-61
2023/12/03 09:59:58;;;;;;;18.10;9.00;;;;;;;5.91;48.01;99597.37;106599;1287;67972;-64
2023/12/03 10:02:58;;;;;;;11.80;5.30;;;;;;;5.20;50.02;99601.56;106143;1289;73726;-64
2023/12/03 10:05:55;;;;;;;11.40;4.80;;;;;;;4.61;51.98;99596.33;106248;1289;58633;-66
2023/12/03 10:08:53;;;;;;;14.90;6.30;;;;;;;4.02;53.81;99605.45;106374;1286;60520;-65
2023/12/03 10:11:57;;;;;;;13.60;5.90;;;;;;;3.58;55.55;99606.36;105904;1292;74890;-60
2023/12/03 10:14:53;;;;;;;10.90;5.10;;;;;;;3.11;58.39;99602.61;106092;1291;69067;-66
2023/12/03 10:17:46;;;;;;;14.30;5.80;;;;;;;2.81;59.95;99606.81;105989;1289;71557;-63
2023/12/03 10:20:41;;;;;;;12.10;5.10;;;;;;;2.58;61.51;99606.59;106038;1293;58583;-65
2023/12/03 10:23:35;;;;;;;12.30;5.00;;;;;;;2.61;64.25;99607.86;105964;1293;60159;-65
2023/12/03 10:26:26;;;;;;;11.70;5.30;;;;;;;3.09;63.04;99608.86;105913;1290;73846;-66
2023/12/03 10:29:26;;;;;;;10.80;4.90;;;;;;;3.27;61.81;99609.09;106139;1291;67958;-65
2023/12/03 10:32:18;;;;;;;;;;;;;;;3.06;62.04;99601.97;105908;1291;73714;-64
2023/12/03 10:35:14;;;;;;;9.80;4.20;;;;;;;2.84;62.80;99606.13;106036;1290;58287;-64
2023/12/03 10:38:12;;;;;;;12.60;5.50;;;;;;;2.67;63.70;99602.50;105882;1290;61182;-62
2023/12/03 10:41:10;;;;;;;12.00;5.10;;;;;;;2.68;64.29;99601.05;106292;1287;74561;-64
2023/12/03 10:44:02;;;;;;;13.60;5.20;;;;;;;2.40;65.15;99599.46;106152;1290;68028;-64
2023/12/03 10:46:59;;;;;;;11.80;5.10;;;;;;;2.22;66.13;99603.70;106057;1293;73762;-64
2023/12/03 10:49:53;;;;;;;15.40;5.80;;;;;;;1.92;67.39;99602.41;106165;1287;58316;-63
2023/12/03 10:52:52;;;;;;;12.60;5.30;;;;;;;1.62;69.05;99615.23;106428;1288;58965;-62
2023/12/03 10:55:57;;;;;;;11.80;4.70;;;;;;;1.27;70.45;99615.48;106340;1287;72661;-63
2023/12/03 10:59:01;;;;;;;13.90;5.90;;;;;;;0.90;72.92;99618.36;106239;1286;68769;-63
2023/12/03 11:02:11;;;;;;;12.30;5.20;;;;;;;0.71;74.14;99618.86;106304;1286;72484;-63
2023/12/03 11:05:11;;;;;;;13.70;4.50;;;;;;;0.49;76.43;99620.52;106621;1286;58434;-62
2023/12/03 11:08:06;;;;;;;11.10;4.10;;;;;;;0.39;76.71;99625.99;106422;1286;58836;-64
2023/12/03 11:10:58;;;;;;;9.50;3.70;;;;;;;0.33;77.69;99621.53;106149;1289;74812;-68
2023/12/03 11:13:57;;;;;;;12.90;4.30;;;;;;;0.37;78.61;99615.45;106275;1290;66739;-64
2023/12/03 11:17:25;;;;;;;13.50;5.80;;;;;;;0.20;79.49;99614.24;105931;1291;73717;-65
2023/12/03 11:20:30;;;;;;;12.30;4.50;;;;;;;-0.00;80.91;99621.36;105067;1296;1002718;-63
2023/12/03 11:24:02;;;;;;;11.30;4.50;;;;;;;-0.15;81.32;99621.41;105723;1293;58940;-64
2023/12/03 11:26:57;;;;;;;10.90;3.70;;;;;;;0.30;82.87;99619.58;104910;1298;1002190;-62
2023/12/03 11:30:04;;;;;;;13.90;6.00;;;;;;;1.21;79.53;99621.70;105414;1299;68397;-63
2023/12/03 11:33:19;;;;;;;12.00;5.10;;;;;;;2.87;75.41;99616.30;105306;1301;245232;-63
2023/12/03 11:36:12;;;;;;;11.30;4.70;;;;;;;4.44;68.54;99613.02;105130;1302;58573;-64
2023/12/03 11:39:07;;;;;;;9.40;3.30;;;;;;;5.49;63.79;99614.29;105352;1302;60356;-63
2023/12/03 11:42:05;;;;;;;12.80;5.50;;;;;;;6.35;58.96;99606.30;105098;1302;73678;-63
2023/12/03 11:45:31;;;;;;;10.00;4.40;;;;;;;6.57;56.97;99607.98;105147;1302;68796;-62
2023/12/03 11:48:44;;;;;;;10.10;4.60;;;;;;;5.87;56.76;99617.33;104857;1305;72783;-64
2023/12/03 11:51:59;;;;;;;13.30;5.70;;;;;;;5.02;58.81;99620.77;105256;1301;58648;-61
2023/12/03 11:55:05;;;;;;;12.20;5.30;;;;;;;4.26;60.83;99623.70;105443;1301;60558;-66
2023/12/03 11:57:57;;;;;;;12.80;5.90;;;;;;;3.82;62.97;99624.65;105565;1294;72852;-64
2023/12/03 12:00:50;;;;;;;11.60;5.60;;;;;;;3.60;63.90;99631.69;105742;1296;69186;-63
2023/12/03 12:03:42;;;;;;;10.80;4.50;;;;;;;3.10;65.68;99632.09;105821;1289;71339;-63
2023/12/03 12:06:33;;;;;;;11.40;4.80;;;;;;;2.70;67.29;99634.56;106271;1289;58805;-63
2023/12/03 12:09:46;;;;;;;12.10;4.90;;;;;;;2.30;68.95;99634.15;106307;1288;59224;-64
2023/12/03 12:12:38;;;;;;;13.90;5.30;;;;;;;1.94;70.90;99634.70;106181;1292;74861;-63
2023/12/03 12:15:29;;;;;;;;;;;;;;;1.64;72.46;99640.46;106092;1292;66072;-62
2023/12/03 12:18:22;;;;;;;12.70;5.60;;;;;;;1.42;73.60;99643.42;106354;1289;71089;-61
2023/12/03 12:21:15;;;;;;;11.00;5.00;;;;;;;1.23;74.73;99644.67;106265;1289;58620;-63
2023/12/03 12:24:07;;;;;;;10.50;4.90;;;;;;;1.08;75.89;99650.21;107103;1280;59188;-63
2023/12/03 12:26:57;;;;;;;11.30;5.20;;;;;;;0.92;76.65;99648.68;107287;1280;74960;-62
2023/12/03 12:29:50;;;;;;;14.90;5.80;;;;;;;0.75;77.67;99648.89;107312;1280;67974;-64
2023/12/03 12:32:51;;;;;;;12.40;5.60;;;;;;;0.62;78.29;99650.48;107143;1280;72616;-63
2023/12/03 12:35:42;;;;;;;12.30;5.40;;;;;;;0.48;79.78;99657.07;107365;1280;58524;-62
2023/12/03 12:38:42;;;;;;;13.70;5.30;;;;;;;0.32;80.73;99657.54;106946;1280;60034;-62
2023/12/03 12:41:41;;;;;;;12.30;5.40;;;;;;;0.21;82.08;99664.81;107262;1280;73727;-63
2023/12/03 12:44:44;;;;;;;13.90;6.70;;;;;;;0.09;82.75;99665.64;107149;1280;68771;-63
2023/12/03 12:47:41;;;;;;;13.50;6.20;;;;;;;0.03;83.78;99668.52;107179;1280;71819;-63
2023/12/03 12:50:41;;;;;;;13.10;5.70;;;;;;;-0.02;84.77;99675.34;107461;1276;58238;-65
2023/12/03 12:53:58;;;;;;;14.90;5.80;;;;;;;-0.12;85.77;99678.16;107320;1276;60056;-67
2023/12/03 12:56:48;;;;;;;11.00;5.00;;;;;;;-0.21;85.95;99679.22;107561;1276;73764;-68
2023/12/03 12:59:39;;;;;;;13.20;4.90;;;;;;;-0.30;86.64;99680.61;107489;1276;68872;-67
2023/12/03 13:02:28;;;;;;;11.80;5.00;;;;;;;-0.38;87.39;99683.54;106907;1276;1002335;-67
2023/12/03 13:05:18;;;;;;;9.80;4.30;;;;;;;-0.45;88.35;99686.92;106817;1276;1002109;-62
2023/12/03 13:08:11;;;;;;;12.10;5.50;;;;;;;-0.52;89.10;99686.67;107399;1277;60279;-64